Regina — 3EUK3 — position and weather

sailwx.info

Track history (hours):
 
Tides and Currents Weather Stations Pressure Air Temp Water Temp Dewpoint Dewpoint Depression Visibility Wind Speed Wind Dir Waves Ship Positions

Regina

Last reported at 2014-Dec-15 01:06 UTC. Time now 2014-Dec-19 07:58 UTC.
Position N 22°48' E 119°37'.

Length 180 m; draft 8.4 m.

Type: Cargo ship. MMSI: 371937000.

Date/timePositionNaut miles runAvg speedWind from/ knotsBaromVisibWave heightAir tempDewpointWater temp
2014-Dec-15 01:06N 22°48' E 119°37'52011.1
2014-Dec-13 02:10N 31°06' E 122°29'6 9.4
2014-Dec-13 01:33N 31°06' E 122°23'1312.6
2014-Dec-13 00:34N 31°11' E 122°10'1514.6
2014-Dec-12 23:33N 31°16' E 121°53'1313.3
2014-Dec-12 22:33N 31°21' E 121°39'8 7.8
2014-Dec-12 21:33N 31°22' E 121°30'1 1.1
2014-Dec-12 20:31N 31°21' E 121°31'0 0.0
2014-Dec-12 19:25N 31°21' E 121°31'0 0.0
2014-Dec-12 18:31N 31°21' E 121°31'0 0.0
2014-Dec-12 17:28N 31°21' E 121°31'0 0.0
2014-Dec-12 16:31N 31°21' E 121°31'0 0.0
2014-Dec-12 15:28N 31°21' E 121°31'0 0.0
2014-Dec-12 14:31N 31°21' E 121°31'0 0.0
2014-Dec-12 13:31N 31°21' E 121°31'0 0.0
2014-Dec-12 12:31N 31°21' E 121°31'0 0.0
2014-Dec-12 11:31N 31°21' E 121°31'0 0.0
2014-Dec-12 10:31N 31°21' E 121°31'0 0.0
2014-Dec-12 09:31N 31°21' E 121°31'0 0.0
2014-Dec-12 08:31N 31°21' E 121°31'0 0.0
2014-Dec-12 07:31N 31°21' E 121°31'0 0.0
2014-Dec-12 06:31N 31°21' E 121°31'0 0.0
2014-Dec-12 05:31N 31°21' E 121°31'0 0.0
2014-Dec-12 04:28N 31°21' E 121°31'0 0.0
2014-Dec-12 03:31N 31°21' E 121°31'0 0.0
2014-Dec-12 02:25N 31°21' E 121°31'0 0.0
2014-Dec-12 01:31N 31°21' E 121°31'0 0.0
2014-Dec-12 00:31N 31°21' E 121°31'0 0.0
2014-Dec-11 23:31N 31°21' E 121°31'0 0.0
2014-Dec-11 22:31N 31°21' E 121°31'0 0.0
2014-Dec-11 21:31N 31°21' E 121°31'0 0.0
2014-Dec-11 20:31N 31°21' E 121°31'0 0.0
2014-Dec-11 19:31N 31°21' E 121°31'0 0.0
2014-Dec-11 18:31N 31°21' E 121°31'0 0.0
2014-Dec-11 17:31N 31°21' E 121°31'0 0.0
2014-Dec-11 16:31N 31°21' E 121°31'0 0.0
2014-Dec-11 15:25N 31°21' E 121°31'0 0.0
2014-Dec-11 14:28N 31°21' E 121°31'0 0.0
2014-Dec-11 13:31N 31°21' E 121°31'0 0.0
2014-Dec-11 12:31N 31°21' E 121°31'0 0.0
2014-Dec-11 11:31N 31°21' E 121°31'0 0.0
2014-Dec-11 10:31N 31°21' E 121°31'0 0.0
2014-Dec-11 09:31N 31°21' E 121°31'0 0.0
2014-Dec-11 08:31N 31°21' E 121°31'0 0.0
2014-Dec-11 07:31N 31°21' E 121°31'0 0.0
2014-Dec-11 06:31N 31°21' E 121°31'0 0.0
2014-Dec-11 05:31N 31°21' E 121°31'0 0.0
2014-Dec-11 04:31N 31°21' E 121°31'0 0.0
2014-Dec-11 03:31N 31°21' E 121°31'0 0.0
2014-Dec-11 02:31N 31°21' E 121°31'0 0.0
2014-Dec-11 01:28N 31°21' E 121°31'0 0.0
2014-Dec-11 00:31N 31°21' E 121°31'0 0.0
2014-Dec-10 23:31N 31°21' E 121°31'0 0.0
2014-Dec-10 22:28N 31°21' E 121°31'0 0.0
2014-Dec-10 21:31N 31°21' E 121°31'0 0.0
2014-Dec-10 20:34N 31°21' E 121°31'0 0.0
2014-Dec-10 19:31N 31°21' E 121°31'0 0.0
2014-Dec-10 18:31N 31°21' E 121°31'0 0.0
2014-Dec-10 17:31N 31°21' E 121°31'0 0.0
2014-Dec-10 16:31N 31°21' E 121°31'0 0.0
2014-Dec-10 15:31N 31°21' E 121°31'0 0.0
2014-Dec-10 14:31N 31°21' E 121°31'0 0.0
2014-Dec-10 13:28N 31°21' E 121°31'0 0.0
2014-Dec-10 12:31N 31°21' E 121°31'0 0.0
2014-Dec-10 11:25N 31°21' E 121°31'0 0.0
2014-Dec-10 10:33N 31°21' E 121°31'0 0.0
2014-Dec-10 09:33N 31°21' E 121°31'3 3.4
2014-Dec-10 08:33N 31°24' E 121°32'9 8.7
2014-Dec-10 07:34N 31°30' E 121°25'1010.0
2014-Dec-10 06:33N 31°37' E 121°16'1010.5
2014-Dec-10 05:34N 31°43' E 121°07'1312.5
2014-Dec-10 04:33N 31°50' E 120°54'1313.1
2014-Dec-10 03:33N 32°01' E 120°45'5 4.7
2014-Dec-10 02:33N 31°60' E 120°40'0 0.0
2014-Dec-10 01:33N 31°60' E 120°40'0 0.0
2014-Dec-10 00:33N 31°60' E 120°40'0 0.0
2014-Dec-09 23:33N 31°60' E 120°40'0 0.0
2014-Dec-09 22:33N 31°60' E 120°40'0 0.0
2014-Dec-09 21:33N 31°60' E 120°40'0 0.0
2014-Dec-09 20:33N 31°60' E 120°40'0 0.0
2014-Dec-09 19:33N 31°60' E 120°40'0 0.0
2014-Dec-09 18:30N 31°60' E 120°40'0 0.0
2014-Dec-09 17:33N 31°60' E 120°40'0 0.0
2014-Dec-09 16:33N 31°60' E 120°40'0 0.0
2014-Dec-09 15:34N 31°60' E 120°40'0 0.0
2014-Dec-09 14:15N 31°60' E 120°40'0 0.0
2014-Dec-09 13:33N 31°60' E 120°40'0 0.0
2014-Dec-09 12:33N 31°60' E 120°40'0 0.0
2014-Dec-09 11:30N 31°60' E 120°40'0 0.0
2014-Dec-09 10:30N 31°60' E 120°40'0 0.0
2014-Dec-09 09:33N 31°60' E 120°40'0 0.0
2014-Dec-09 08:34N 31°60' E 120°40'0 0.0
2014-Dec-09 07:30N 31°60' E 120°40'0 0.0
2014-Dec-09 06:33N 31°60' E 120°40'0 0.0
2014-Dec-09 05:21N 31°60' E 120°40'0 0.0
2014-Dec-09 04:24N 31°60' E 120°40'0 0.0
2014-Dec-09 03:33N 31°60' E 120°40'0 0.0
2014-Dec-09 02:33N 31°60' E 120°40'0 0.0
2014-Dec-09 01:33N 31°60' E 120°40'0 0.0
2014-Dec-09 00:33N 31°60' E 120°40'0 0.0
2014-Dec-08 23:24N 31°60' E 120°40'0 0.0
2014-Dec-08 22:33N 31°60' E 120°40'0 0.0
2014-Dec-08 21:30N 31°60' E 120°40'0 0.0
2014-Dec-08 20:24N 31°60' E 120°40'0 0.0
2014-Dec-08 19:33N 31°60' E 120°40'0 0.0
2014-Dec-08 18:33N 31°60' E 120°40'0 0.0
2014-Dec-08 17:33N 31°60' E 120°40'0 0.0
2014-Dec-08 16:33N 31°60' E 120°40'0 0.0
2014-Dec-08 15:33N 31°60' E 120°40'0 0.0
2014-Dec-08 14:33N 31°60' E 120°40'0 0.0
2014-Dec-08 13:27N 31°60' E 120°40'0 0.0
2014-Dec-08 12:21N 31°60' E 120°40'0 0.0
2014-Dec-08 11:33N 31°60' E 120°40'0 0.0
2014-Dec-08 10:33N 31°60' E 120°40'0 0.0
2014-Dec-08 09:33N 31°60' E 120°40'0 0.0
2014-Dec-08 08:30N 31°60' E 120°40'0 0.0
2014-Dec-08 07:18N 31°60' E 120°40'0 0.0
2014-Dec-08 06:33N 31°60' E 120°40'0 0.0
2014-Dec-08 05:33N 31°60' E 120°40'0 0.0
2014-Dec-08 04:33N 31°60' E 120°40'0 0.0
2014-Dec-08 03:33N 31°60' E 120°40'0 0.0
2014-Dec-08 02:27N 31°60' E 120°40'0 0.0
2014-Dec-08 01:33N 31°60' E 120°40'0 0.0
2014-Dec-08 00:33N 31°60' E 120°40'0 0.0
2014-Dec-07 23:33N 31°60' E 120°40'0 0.0
2014-Dec-07 22:30N 31°60' E 120°40'0 0.0
2014-Dec-07 21:30N 31°60' E 120°40'0 0.0
2014-Dec-07 20:33N 31°60' E 120°40'0 0.0
2014-Dec-07 19:30N 31°60' E 120°40'0 0.0
2014-Dec-07 18:33N 31°60' E 120°40'0 0.0
2014-Dec-07 17:33N 31°60' E 120°40'0 0.0
2014-Dec-07 16:33N 31°60' E 120°40'0 0.0
2014-Dec-07 15:30N 31°60' E 120°40'0 0.0
2014-Dec-07 14:33N 31°60' E 120°40'0 0.0
2014-Dec-07 11:30N 31°60' E 120°40'0 0.0
2014-Dec-07 10:30N 31°60' E 120°40'0 0.0
2014-Dec-07 09:18N 31°60' E 120°40'3 4.0
2014-Dec-07 08:33N 32°00' E 120°43'1 1.2
2014-Dec-07 07:31N 31°60' E 120°45'0 0.0
2014-Dec-07 06:16N 31°60' E 120°45'0 0.2
2014-Dec-07 05:19N 31°60' E 120°45'0 0.1
2014-Dec-07 04:28N 31°60' E 120°45'0 0.0
2014-Dec-07 03:31N 31°60' E 120°45'6 6.7
2014-Dec-07 02:34N 31°57' E 120°52'1010.4
2014-Dec-07 01:33N 31°47' E 120°56'10 9.6
2014-Dec-07 00:34N 31°44' E 121°07'1010.2
2014-Dec-06 23:34N 31°37' E 121°16'4 3.8
2014-Dec-06 22:33N 31°35' E 121°20'0 0.0
2014-Dec-06 21:33N 31°35' E 121°20'0 0.1
2014-Dec-06 20:33N 31°35' E 121°20'0 0.2
2014-Dec-06 19:33N 31°35' E 121°19'0 0.1
2014-Dec-06 18:33N 31°35' E 121°19'7 6.6
2014-Dec-06 17:33N 31°30' E 121°25'1010.5
2014-Dec-06 16:33N 31°24' E 121°34'8 8.5
2014-Dec-06 15:33N 31°19' E 121°42'1313.3
2014-Dec-06 14:33N 31°09' E 121°53'1212.3
2014-Dec-06 13:34N 31°04' E 122°06'1010.1
2014-Dec-06 12:34N 31°03' E 122°18'3 0.1
2014-Dec-05 02:33N 31°01' E 122°21'1 0.8
2014-Dec-05 01:33N 31°02' E 122°21'  
Track history (hours):
 
Tides and Currents Weather Stations Pressure Air Temp Water Temp Dewpoint Dewpoint Depression Visibility Wind Speed Wind Dir Waves Ship Positions

Regina

Last reported at 2014-Dec-15 01:06 UTC. Time now 2014-Dec-19 07:58 UTC.
Position N 22°48' E 119°37'.

Length 180 m; draft 8.4 m.

Type: Cargo ship. MMSI: 371937000.

Date/timePositionNaut miles runAvg speedWind from/ knotsBaromVisibWave heightAir tempDewpointWater temp
2014-Dec-15 01:06N 22°48' E 119°37'52011.1
2014-Dec-13 02:10N 31°06' E 122°29'6 9.4
2014-Dec-13 01:33N 31°06' E 122°23'1312.6
2014-Dec-13 00:34N 31°11' E 122°10'1514.6
2014-Dec-12 23:33N 31°16' E 121°53'1313.3
2014-Dec-12 22:33N 31°21' E 121°39'8 7.8
2014-Dec-12 21:33N 31°22' E 121°30'1 1.1
2014-Dec-12 20:31N 31°21' E 121°31'0 0.0
2014-Dec-12 19:25N 31°21' E 121°31'0 0.0
2014-Dec-12 18:31N 31°21' E 121°31'0 0.0
2014-Dec-12 17:28N 31°21' E 121°31'0 0.0
2014-Dec-12 16:31N 31°21' E 121°31'0 0.0
2014-Dec-12 15:28N 31°21' E 121°31'0 0.0
2014-Dec-12 14:31N 31°21' E 121°31'0 0.0
2014-Dec-12 13:31N 31°21' E 121°31'0 0.0
2014-Dec-12 12:31N 31°21' E 121°31'0 0.0
2014-Dec-12 11:31N 31°21' E 121°31'0 0.0
2014-Dec-12 10:31N 31°21' E 121°31'0 0.0
2014-Dec-12 09:31N 31°21' E 121°31'0 0.0
2014-Dec-12 08:31N 31°21' E 121°31'0 0.0
2014-Dec-12 07:31N 31°21' E 121°31'0 0.0
2014-Dec-12 06:31N 31°21' E 121°31'0 0.0
2014-Dec-12 05:31N 31°21' E 121°31'0 0.0
2014-Dec-12 04:28N 31°21' E 121°31'0 0.0
2014-Dec-12 03:31N 31°21' E 121°31'0 0.0
2014-Dec-12 02:25N 31°21' E 121°31'0 0.0
2014-Dec-12 01:31N 31°21' E 121°31'0 0.0
2014-Dec-12 00:31N 31°21' E 121°31'0 0.0
2014-Dec-11 23:31N 31°21' E 121°31'0 0.0
2014-Dec-11 22:31N 31°21' E 121°31'0 0.0
2014-Dec-11 21:31N 31°21' E 121°31'0 0.0
2014-Dec-11 20:31N 31°21' E 121°31'0 0.0
2014-Dec-11 19:31N 31°21' E 121°31'0 0.0
2014-Dec-11 18:31N 31°21' E 121°31'0 0.0
2014-Dec-11 17:31N 31°21' E 121°31'0 0.0
2014-Dec-11 16:31N 31°21' E 121°31'0 0.0
2014-Dec-11 15:25N 31°21' E 121°31'0 0.0
2014-Dec-11 14:28N 31°21' E 121°31'0 0.0
2014-Dec-11 13:31N 31°21' E 121°31'0 0.0
2014-Dec-11 12:31N 31°21' E 121°31'0 0.0
2014-Dec-11 11:31N 31°21' E 121°31'0 0.0
2014-Dec-11 10:31N 31°21' E 121°31'0 0.0
2014-Dec-11 09:31N 31°21' E 121°31'0 0.0
2014-Dec-11 08:31N 31°21' E 121°31'0 0.0
2014-Dec-11 07:31N 31°21' E 121°31'0 0.0
2014-Dec-11 06:31N 31°21' E 121°31'0 0.0
2014-Dec-11 05:31N 31°21' E 121°31'0 0.0
2014-Dec-11 04:31N 31°21' E 121°31'0 0.0
2014-Dec-11 03:31N 31°21' E 121°31'0 0.0
2014-Dec-11 02:31N 31°21' E 121°31'0 0.0
2014-Dec-11 01:28N 31°21' E 121°31'0 0.0
2014-Dec-11 00:31N 31°21' E 121°31'0 0.0
2014-Dec-10 23:31N 31°21' E 121°31'0 0.0
2014-Dec-10 22:28N 31°21' E 121°31'0 0.0
2014-Dec-10 21:31N 31°21' E 121°31'0 0.0
2014-Dec-10 20:34N 31°21' E 121°31'0 0.0
2014-Dec-10 19:31N 31°21' E 121°31'0 0.0
2014-Dec-10 18:31N 31°21' E 121°31'0 0.0
2014-Dec-10 17:31N 31°21' E 121°31'0 0.0
2014-Dec-10 16:31N 31°21' E 121°31'0 0.0
2014-Dec-10 15:31N 31°21' E 121°31'0 0.0
2014-Dec-10 14:31N 31°21' E 121°31'0 0.0
2014-Dec-10 13:28N 31°21' E 121°31'0 0.0
2014-Dec-10 12:31N 31°21' E 121°31'0 0.0
2014-Dec-10 11:25N 31°21' E 121°31'0 0.0
2014-Dec-10 10:33N 31°21' E 121°31'0 0.0
2014-Dec-10 09:33N 31°21' E 121°31'3 3.4
2014-Dec-10 08:33N 31°24' E 121°32'9 8.7
2014-Dec-10 07:34N 31°30' E 121°25'1010.0
2014-Dec-10 06:33N 31°37' E 121°16'1010.5
2014-Dec-10 05:34N 31°43' E 121°07'1312.5
2014-Dec-10 04:33N 31°50' E 120°54'1313.1
2014-Dec-10 03:33N 32°01' E 120°45'5 4.7
2014-Dec-10 02:33N 31°60' E 120°40'0 0.0
2014-Dec-10 01:33N 31°60' E 120°40'0 0.0
2014-Dec-10 00:33N 31°60' E 120°40'0 0.0
2014-Dec-09 23:33N 31°60' E 120°40'0 0.0
2014-Dec-09 22:33N 31°60' E 120°40'0 0.0
2014-Dec-09 21:33N 31°60' E 120°40'0 0.0
2014-Dec-09 20:33N 31°60' E 120°40'0 0.0
2014-Dec-09 19:33N 31°60' E 120°40'0 0.0
2014-Dec-09 18:30N 31°60' E 120°40'0 0.0
2014-Dec-09 17:33N 31°60' E 120°40'0 0.0
2014-Dec-09 16:33N 31°60' E 120°40'0 0.0
2014-Dec-09 15:34N 31°60' E 120°40'0 0.0
2014-Dec-09 14:15N 31°60' E 120°40'0 0.0
2014-Dec-09 13:33N 31°60' E 120°40'0 0.0
2014-Dec-09 12:33N 31°60' E 120°40'0 0.0
2014-Dec-09 11:30N 31°60' E 120°40'0 0.0
2014-Dec-09 10:30N 31°60' E 120°40'0 0.0
2014-Dec-09 09:33N 31°60' E 120°40'0 0.0
2014-Dec-09 08:34N 31°60' E 120°40'0 0.0
2014-Dec-09 07:30N 31°60' E 120°40'0 0.0
2014-Dec-09 06:33N 31°60' E 120°40'0 0.0
2014-Dec-09 05:21N 31°60' E 120°40'0 0.0
2014-Dec-09 04:24N 31°60' E 120°40'0 0.0
2014-Dec-09 03:33N 31°60' E 120°40'0 0.0
2014-Dec-09 02:33N 31°60' E 120°40'0 0.0
2014-Dec-09 01:33N 31°60' E 120°40'0 0.0
2014-Dec-09 00:33N 31°60' E 120°40'0 0.0
2014-Dec-08 23:24N 31°60' E 120°40'0 0.0
2014-Dec-08 22:33N 31°60' E 120°40'0 0.0
2014-Dec-08 21:30N 31°60' E 120°40'0 0.0
2014-Dec-08 20:24N 31°60' E 120°40'0 0.0
2014-Dec-08 19:33N 31°60' E 120°40'0 0.0
2014-Dec-08 18:33N 31°60' E 120°40'0 0.0
2014-Dec-08 17:33N 31°60' E 120°40'0 0.0
2014-Dec-08 16:33N 31°60' E 120°40'0 0.0
2014-Dec-08 15:33N 31°60' E 120°40'0 0.0
2014-Dec-08 14:33N 31°60' E 120°40'0 0.0
2014-Dec-08 13:27N 31°60' E 120°40'0 0.0
2014-Dec-08 12:21N 31°60' E 120°40'0 0.0
2014-Dec-08 11:33N 31°60' E 120°40'0 0.0
2014-Dec-08 10:33N 31°60' E 120°40'0 0.0
2014-Dec-08 09:33N 31°60' E 120°40'0 0.0
2014-Dec-08 08:30N 31°60' E 120°40'0 0.0
2014-Dec-08 07:18N 31°60' E 120°40'0 0.0
2014-Dec-08 06:33N 31°60' E 120°40'0 0.0
2014-Dec-08 05:33N 31°60' E 120°40'0 0.0
2014-Dec-08 04:33N 31°60' E 120°40'0 0.0
2014-Dec-08 03:33N 31°60' E 120°40'0 0.0
2014-Dec-08 02:27N 31°60' E 120°40'0 0.0
2014-Dec-08 01:33N 31°60' E 120°40'0 0.0
2014-Dec-08 00:33N 31°60' E 120°40'0 0.0
2014-Dec-07 23:33N 31°60' E 120°40'0 0.0
2014-Dec-07 22:30N 31°60' E 120°40'0 0.0
2014-Dec-07 21:30N 31°60' E 120°40'0 0.0
2014-Dec-07 20:33N 31°60' E 120°40'0 0.0
2014-Dec-07 19:30N 31°60' E 120°40'0 0.0
2014-Dec-07 18:33N 31°60' E 120°40'0 0.0
2014-Dec-07 17:33N 31°60' E 120°40'0 0.0
2014-Dec-07 16:33N 31°60' E 120°40'0 0.0
2014-Dec-07 15:30N 31°60' E 120°40'0 0.0
2014-Dec-07 14:33N 31°60' E 120°40'0 0.0
2014-Dec-07 11:30N 31°60' E 120°40'0 0.0
2014-Dec-07 10:30N 31°60' E 120°40'0 0.0
2014-Dec-07 09:18N 31°60' E 120°40'3 4.0
2014-Dec-07 08:33N 32°00' E 120°43'1 1.2
2014-Dec-07 07:31N 31°60' E 120°45'0 0.0
2014-Dec-07 06:16N 31°60' E 120°45'0 0.2
2014-Dec-07 05:19N 31°60' E 120°45'0 0.1
2014-Dec-07 04:28N 31°60' E 120°45'0 0.0
2014-Dec-07 03:31N 31°60' E 120°45'6 6.7
2014-Dec-07 02:34N 31°57' E 120°52'1010.4
2014-Dec-07 01:33N 31°47' E 120°56'10 9.6
2014-Dec-07 00:34N 31°44' E 121°07'1010.2
2014-Dec-06 23:34N 31°37' E 121°16'4 3.8
2014-Dec-06 22:33N 31°35' E 121°20'0 0.0
2014-Dec-06 21:33N 31°35' E 121°20'0 0.1
2014-Dec-06 20:33N 31°35' E 121°20'0 0.2
2014-Dec-06 19:33N 31°35' E 121°19'0 0.1
2014-Dec-06 18:33N 31°35' E 121°19'7 6.6
2014-Dec-06 17:33N 31°30' E 121°25'1010.5
2014-Dec-06 16:33N 31°24' E 121°34'8 8.5
2014-Dec-06 15:33N 31°19' E 121°42'1313.3
2014-Dec-06 14:33N 31°09' E 121°53'1212.3
2014-Dec-06 13:34N 31°04' E 122°06'1010.1
2014-Dec-06 12:34N 31°03' E 122°18'3 0.1
2014-Dec-05 02:33N 31°01' E 122°21'1 0.8
2014-Dec-05 01:33N 31°02' E 122°21'  

Dump ship's entire track history